Time,TemperatureF,DewpointF,PressureIn,WindDirection,WindDirectionDegrees,WindSpeedMPH,WindSpeedGustMPH,Humidity,HourlyPrecipIn,Conditions,Clouds,dailyrainin,SoftwareType,DateUTC
2018-09-19 00:00:00,81.7,77.8,29.99,SE,138,0,0,88,0,,CLR,0,VWS V15.00,2018-09-19 04:00:00,
2018-09-19 00:04:48,81.7,77.8,30.00,SE,139,0,0,88,0,,CLR,0,VWS V15.00,2018-09-19 04:04:48,
2018-09-19 00:09:52,81.7,77.8,29.99,SE,140,0,0,88,0,,CLR,0,VWS V15.00,2018-09-19 04:09:52,
2018-09-19 00:14:53,81.6,77.7,29.99,SE,139,0,0,88,0,,CLR,0,VWS V15.00,2018-09-19 04:14:53,
2018-09-19 00:19:53,81.6,77.36,29.99,SSE,149,0,0,87,0,,CLR,0,VWS V15.00,2018-09-19 04:19:53,
2018-09-19 00:24:53,81.5,77.26,29.99,SSE,149,0,0,87,0,,CLR,0,VWS V15.00,2018-09-19 04:24:53,
2018-09-19 00:29:58,81.5,77.26,29.99,SSE,149,0,0,87,0,,CLR,0,VWS V15.00,2018-09-19 04:29:58,
2018-09-19 00:34:57,81.5,77.26,29.99,SSE,149,0,0,87,0,,CLR,0,VWS V15.00,2018-09-19 04:34:57,
2018-09-19 00:39:58,81.4,77.16,29.98,SSE,148,0,0,87,0,,CLR,0,VWS V15.00,2018-09-19 04:39:58,
2018-09-19 00:45:02,81.4,77.51,29.99,SSE,148,0,0,88,0,,CLR,0,VWS V15.00,2018-09-19 04:45:02,
2018-09-19 00:50:03,81.4,77.51,29.98,SSE,148,0,0,88,0,,CLR,0,VWS V15.00,2018-09-19 04:50:03,
2018-09-19 00:55:02,81.3,77.41,29.98,SSE,148,0,0,88,0,,CLR,0,VWS V15.00,2018-09-19 04:55:02,
2018-09-19 01:00:02,81.3,77.75,29.99,SE,141,0,0,89,0,,CLR,0,VWS V15.00,2018-09-19 05:00:02,
2018-09-19 01:05:03,81.2,77.65,29.98,SE,143,0,0,89,0,,CLR,0,VWS V15.00,2018-09-19 05:05:03,
2018-09-19 01:10:02,81.2,77.31,29.99,SSE,148,0,0,88,0,,CLR,0,VWS V15.00,2018-09-19 05:10:02,
2018-09-19 01:14:12,81.2,77.31,29.99,SSE,149,0,0,88,0,,CLR,0,VWS V15.00,2018-09-19 05:14:12,
2018-09-19 01:19:13,81.1,76.87,29.98,SSE,149,0,0,87,0,,CLR,0,VWS V15.00,2018-09-19 05:19:13,
2018-09-19 01:24:12,81,76.77,29.99,SSE,149,0,0,87,0,,CLR,0,VWS V15.00,2018-09-19 05:24:12,
2018-09-19 01:29:13,81,77.11,29.98,SSE,149,0,0,88,0,,CLR,0,VWS V15.00,2018-09-19 05:29:13,
2018-09-19 01:34:18,80.9,76.67,29.99,SSE,149,0,0,87,0,,CLR,0,VWS V15.00,2018-09-19 05:34:18,
2018-09-19 01:39:18,80.8,76.92,29.98,SSE,150,0,0,88,0,,CLR,0,VWS V15.00,2018-09-19 05:39:18,
2018-09-19 01:44:17,80.8,76.92,29.98,SSE,150,0,0,88,0,,CLR,0,VWS V15.00,2018-09-19 05:44:17,
2018-09-19 01:49:22,80.7,76.82,29.99,SSE,149,0,0,88,0,,CLR,0,VWS V15.00,2018-09-19 05:49:22,
2018-09-19 01:54:23,80.6,76.72,29.97,SSE,149,0,0,88,0,,CLR,0,VWS V15.00,2018-09-19 05:54:23,
2018-09-19 02:00:00,80.5,76.62,29.98,SSE,149,0,0,88,0,,CLR,0,VWS V15.00,2018-09-19 06:00:00,
2018-09-19 02:04:27,80.5,76.62,29.97,SSE,149,0,0,88,0,,CLR,0,VWS V15.00,2018-09-19 06:04:27,
2018-09-19 02:09:28,80.5,76.62,29.97,SSE,149,0,0,88,0,,CLR,0,VWS V15.00,2018-09-19 06:09:28,
2018-09-19 02:14:27,80.4,76.52,29.98,SSE,150,0,0,88,0,,CLR,0,VWS V15.00,2018-09-19 06:14:27,
2018-09-19 02:19:28,80.3,76.43,29.98,SSE,150,0,0,88,0,,CLR,0,VWS V15.00,2018-09-19 06:19:28,
2018-09-19 02:24:32,80.2,76.33,29.98,SSE,149,0,0,88,0,,CLR,0,VWS V15.00,2018-09-19 06:24:32,
2018-09-19 02:29:32,80.2,76.67,29.97,SE,145,0,0,89,0,,CLR,0,VWS V15.00,2018-09-19 06:29:32,
2018-09-19 02:34:33,80.1,76.57,29.97,SSE,148,0,0,89,0,,CLR,0,VWS V15.00,2018-09-19 06:34:33,
2018-09-19 02:39:37,80.1,77.24,29.97,SE,133,0,0,91,0,,CLR,0,VWS V15.00,2018-09-19 06:39:37,
2018-09-19 02:44:37,80,76.81,29.97,SE,142,0,0,90,0,,CLR,0,VWS V15.00,2018-09-19 06:44:37,
2018-09-19 02:49:38,79.9,76.37,29.97,SE,146,0,0,89,0,,CLR,0,VWS V15.00,2018-09-19 06:49:38,
2018-09-19 02:54:38,79.8,75.93,29.96,SSE,149,0,0,88,0,,CLR,0,VWS V15.00,2018-09-19 06:54:38,
2018-09-19 03:00:00,79.7,75.83,29.96,SSE,148,0,0,88,0,,CLR,0,VWS V15.00,2018-09-19 07:00:00,
2018-09-19 03:04:42,79.6,76.08,29.96,SE,146,0,0,89,0,,CLR,0,VWS V15.00,2018-09-19 07:04:42,
2018-09-19 03:09:43,79.5,76.31,29.96,SE,139,0,0,90,0,,CLR,0,VWS V15.00,2018-09-19 07:09:43,
2018-09-19 03:14:47,79.4,75.54,29.96,SSE,149,0,0,88,0,,CLR,0,VWS V15.00,2018-09-19 07:14:47,
2018-09-19 03:19:48,79.2,75.68,29.96,SSE,148,0,0,89,0,,CLR,0,VWS V15.00,2018-09-19 07:19:48,
2018-09-19 03:24:48,79.2,75.34,29.96,SSE,149,0,0,88,0,,CLR,0,VWS V15.00,2018-09-19 07:24:48,
2018-09-19 03:29:48,79.1,75.58,29.96,SSE,149,0,0,89,0,,CLR,0,VWS V15.00,2018-09-19 07:29:48,
2018-09-19 03:34:52,79,75.48,29.96,SSE,147,0,0,89,0,,CLR,0,VWS V15.00,2018-09-19 07:34:52,
2018-09-19 03:39:53,78.9,75.39,29.96,SSE,149,0,0,89,0,,CLR,0,VWS V15.00,2018-09-19 07:39:53,
2018-09-19 03:44:53,78.9,75.39,29.95,SSE,149,0,0,89,0,,CLR,0,VWS V15.00,2018-09-19 07:44:53,
2018-09-19 03:49:58,78.8,75.29,29.95,SSE,149,0,0,89,0,,CLR,0,VWS V15.00,2018-09-19 07:49:58,
2018-09-19 03:54:58,78.7,75.19,29.96,SSE,150,0,0,89,0,,CLR,0,VWS V15.00,2018-09-19 07:54:58,
2018-09-19 04:00:00,78.6,75.09,29.95,SSE,150,0,0,89,0,,CLR,0,VWS V15.00,2018-09-19 08:00:00,
2018-09-19 04:05:03,78.5,74.99,29.95,SSE,150,0,0,89,0,,CLR,0,VWS V15.00,2018-09-19 08:05:03,
2018-09-19 04:10:02,78.4,74.89,29.95,SSE,150,0,0,89,0,,CLR,0,VWS V15.00,2018-09-19 08:10:02,
2018-09-19 04:15:02,78.3,74.79,29.96,SSE,150,0,0,89,0,,CLR,0,VWS V15.00,2018-09-19 08:15:02,
2018-09-19 04:20:02,78.2,74.7,29.95,SSE,150,0,0,89,0,,CLR,0,VWS V15.00,2018-09-19 08:20:02,
2018-09-19 04:25:02,78.1,74.6,29.95,SSE,150,0,0,89,0,,CLR,0,VWS V15.00,2018-09-19 08:25:02,
2018-09-19 04:30:02,78.1,74.6,29.95,SSE,150,0,0,89,0,,CLR,0,VWS V15.00,2018-09-19 08:30:02,
2018-09-19 04:34:12,78,74.5,29.96,SSE,150,0,0,89,0,,CLR,0,VWS V15.00,2018-09-19 08:34:12,
2018-09-19 04:39:13,77.9,74.4,29.95,SSE,150,0,0,89,0,,CLR,0,VWS V15.00,2018-09-19 08:39:13,
2018-09-19 04:44:13,77.9,74.4,29.95,SSE,150,0,0,89,0,,CLR,0,VWS V15.00,2018-09-19 08:44:13,
2018-09-19 04:49:13,77.9,74.4,29.95,SSE,150,0,0,89,0,,CLR,0,VWS V15.00,2018-09-19 08:49:13,
2018-09-19 04:54:18,77.8,74.3,29.95,SSE,150,0,0,89,0,,CLR,0,VWS V15.00,2018-09-19 08:54:18,
2018-09-19 05:00:00,77.7,74.2,29.94,SSE,150,0,0,89,0,,CLR,0,VWS V15.00,2018-09-19 09:00:00,
2018-09-19 05:04:18,77.7,74.54,29.95,SSE,150,0,0,90,0,,CLR,0,VWS V15.00,2018-09-19 09:04:18,
2018-09-19 05:09:23,77.7,74.54,29.94,SSE,150,0,0,90,0,,CLR,0,VWS V15.00,2018-09-19 09:09:23,
2018-09-19 05:14:22,77.7,74.54,29.95,SSE,150,0,0,90,0,,CLR,0,VWS V15.00,2018-09-19 09:14:22,
2018-09-19 05:19:23,77.6,74.44,29.94,SSE,150,0,0,90,0,,,0,VWS V15.00,2018-09-19 09:19:23,
2018-09-19 05:24:27,77.5,74.34,29.95,SSE,150,0,0,90,0,,CLR,0,VWS V15.00,2018-09-19 09:24:27,
2018-09-19 05:29:28,77.5,74.34,29.94,SSE,150,0,0,90,0,,CLR,0,VWS V15.00,2018-09-19 09:29:28,
2018-09-19 05:34:28,77.5,74.34,29.95,SSE,150,0,0,90,0,,CLR,0,VWS V15.00,2018-09-19 09:34:28,
2018-09-19 05:39:28,77.5,74.34,29.95,SSE,150,0,0,90,0,,,0,VWS V15.00,2018-09-19 09:39:28,
2018-09-19 05:44:32,77.5,74.34,29.95,SSE,150,0,0,90,0,,,0,VWS V15.00,2018-09-19 09:44:32,
2018-09-19 05:49:33,77.4,74.24,29.95,SSE,150,0,0,90,0,,,0,VWS V15.00,2018-09-19 09:49:33,
2018-09-19 05:54:32,77.4,74.24,29.95,SSE,150,0,0,90,0,,,0,VWS V15.00,2018-09-19 09:54:32,
2018-09-19 06:00:00,77.4,74.24,29.96,SSE,150,0,0,90,0,,,0,VWS V15.00,2018-09-19 10:00:00,
2018-09-19 06:04:38,77.4,74.24,29.95,SSE,150,0,0,90,0,,,0,VWS V15.00,2018-09-19 10:04:38,
2018-09-19 06:09:38,77.3,74.14,29.96,SSE,150,0,0,90,0,,,0,VWS V15.00,2018-09-19 10:09:38,
2018-09-19 06:14:42,77.3,74.14,29.96,SSE,150,0,0,90,0,,,0,VWS V15.00,2018-09-19 10:14:42,
2018-09-19 06:19:43,77.3,74.47,29.97,SSE,150,0,0,91,0,,,0,VWS V15.00,2018-09-19 10:19:43,
2018-09-19 06:24:43,77.3,74.14,29.97,SSE,150,0,0,90,0,,,0,VWS V15.00,2018-09-19 10:24:43,
2018-09-19 06:29:47,77.2,74.37,29.97,SSE,150,0,0,91,0,,,0,VWS V15.00,2018-09-19 10:29:47,
2018-09-19 06:34:47,77.1,73.94,29.96,SSE,150,0,0,90,0,,,0,VWS V15.00,2018-09-19 10:34:47,
2018-09-19 06:39:48,77,73.85,29.97,SSE,150,0,0,90,0,,,0,VWS V15.00,2018-09-19 10:39:48,
2018-09-19 06:44:53,77,73.85,29.97,SSE,150,0,0,90,0,,,0,VWS V15.00,2018-09-19 10:44:53,
2018-09-19 06:49:52,76.9,73.75,29.97,SSE,150,0,0,90,0,,,0,VWS V15.00,2018-09-19 10:49:52,
2018-09-19 06:54:52,76.8,73.98,29.98,SSE,150,0,0,91,0,,,0,VWS V15.00,2018-09-19 10:54:52,
2018-09-19 07:00:00,76.8,73.98,29.97,SSE,150,0,0,91,0,,,0,VWS V15.00,2018-09-19 11:00:00,
2018-09-19 07:04:57,76.7,73.55,29.97,SSE,150,0,0,90,0,,,0,VWS V15.00,2018-09-19 11:04:57,
2018-09-19 07:10:03,76.7,73.55,29.98,SSE,150,0,0,90,0,,,0,VWS V15.00,2018-09-19 11:10:03,
2018-09-19 07:15:03,76.6,73.78,29.97,SSE,150,0,0,91,0,,,0,VWS V15.00,2018-09-19 11:15:03,
2018-09-19 07:20:02,76.6,73.78,29.97,SSE,150,0,0,91,0,,CLR,0,VWS V15.00,2018-09-19 11:20:02,
2018-09-19 07:25:02,76.5,73.68,29.98,SSE,150,0,0,91,0,,,0,VWS V15.00,2018-09-19 11:25:02,
2018-09-19 07:30:03,76.5,73.68,29.98,SSE,150,0,0,91,0,,,0,VWS V15.00,2018-09-19 11:30:03,
2018-09-19 07:34:13,76.4,73.58,29.98,SSE,150,0,0,91,0,,,0,VWS V15.00,2018-09-19 11:34:13,
2018-09-19 07:39:13,76.4,73.58,29.99,SSE,150,0,0,91,0,,CLR,0,VWS V15.00,2018-09-19 11:39:13,
2018-09-19 07:44:13,76.4,73.58,29.98,SSE,150,0,0,91,0,,CLR,0,VWS V15.00,2018-09-19 11:44:13,
2018-09-19 07:49:17,76.4,73.58,29.99,WSW,241,0,0,91,0,,CLR,0,VWS V15.00,2018-09-19 11:49:17,
2018-09-19 07:54:17,76.4,73.58,29.99,WSW,241,0,0,91,0,,CLR,0,VWS V15.00,2018-09-19 11:54:17,
2018-09-19 08:00:00,76.6,74.11,29.99,WSW,241,0,0,92,0,,CLR,0,VWS V15.00,2018-09-19 12:00:00,
2018-09-19 08:04:18,76.8,74.3,29.99,WSW,241,0,0,92,0,,CLR,0,VWS V15.00,2018-09-19 12:04:18,
2018-09-19 08:09:22,77.1,74.92,29.99,WSW,241,0,0,93,0,,CLR,0,VWS V15.00,2018-09-19 12:09:22,
2018-09-19 08:14:22,77.2,75.02,30.00,WSW,241,0,0,93,0,,CLR,0,VWS V15.00,2018-09-19 12:14:22,
2018-09-19 08:19:23,77.5,75.32,30.00,WSW,241,0,0,93,0,,CLR,0,VWS V15.00,2018-09-19 12:19:23,
2018-09-19 08:24:28,77.7,75.52,30.00,WSW,242,0,0,93,0,,CLR,0,VWS V15.00,2018-09-19 12:24:28,
2018-09-19 08:29:28,77.9,75.72,30.00,WSW,241,0,0,93,0,,CLR,0,VWS V15.00,2018-09-19 12:29:28,
2018-09-19 08:34:27,78.1,76.24,30.00,WSW,242,0,0,94,0,,CLR,0,VWS V15.00,2018-09-19 12:34:27,
2018-09-19 08:39:33,78.4,76.53,30.00,WSW,242,0,0,94,0,,CLR,0,VWS V15.00,2018-09-19 12:39:33,
2018-09-19 08:44:33,78.7,76.83,30.00,WSW,242,0,0,94,0,,CLR,0,VWS V15.00,2018-09-19 12:44:33,
2018-09-19 08:49:32,79,77.13,30.00,WSW,242,0,0,94,0,,CLR,0,VWS V15.00,2018-09-19 12:49:32,
2018-09-19 08:54:37,79.4,77.53,30.00,SW,234,0,0,94,0,,CLR,0,VWS V15.00,2018-09-19 12:54:37,
2018-09-19 09:00:00,79.7,77.82,30.00,SW,233,0,0,94,0,,CLR,0,VWS V15.00,2018-09-19 13:00:00,
2018-09-19 09:04:37,80,78.12,30.01,SW,236,0,0,94,0,,CLR,0,VWS V15.00,2018-09-19 13:04:37,
2018-09-19 09:09:43,80.4,78.19,30.01,WSW,238,0,0,93,0,,CLR,0,VWS V15.00,2018-09-19 13:09:43,
2018-09-19 09:14:42,80.7,78.16,30.01,WSW,238,0,0,92,0,,CLR,0,VWS V15.00,2018-09-19 13:14:42,
2018-09-19 09:19:42,81,78.46,30.01,South,190,2,3,92,0,,CLR,0,VWS V15.00,2018-09-19 13:19:42,
2018-09-19 09:24:48,81.4,78.52,30.00,South,190,0,5,91,0,,CLR,0,VWS V15.00,2018-09-19 13:24:48,
2018-09-19 09:29:48,81.7,78.82,30.00,South,182,0,5,91,0,,CLR,0,VWS V15.00,2018-09-19 13:29:48,
2018-09-19 09:34:48,82,78.78,30.01,SSE,156,5,5,90,0,,CLR,0,VWS V15.00,2018-09-19 13:34:48,
2018-09-19 09:39:52,82.4,78.84,30.00,SSE,168,3,6,89,0,,CLR,0,VWS V15.00,2018-09-19 13:39:52,
2018-09-19 09:44:53,82.8,79.23,30.01,SSW,206,0,6,89,0,,CLR,0,VWS V15.00,2018-09-19 13:44:53,
2018-09-19 09:49:53,83.3,79.38,30.01,South,189,4,6,88,0,,CLR,0,VWS V15.00,2018-09-19 13:49:53,
2018-09-19 09:54:53,83.7,79.42,30.01,SW,218,3,6,87,0,,CLR,0,VWS V15.00,2018-09-19 13:54:53,
2018-09-19 10:00:00,84.1,79.11,30.01,WSW,244,6,7,85,0,,CLR,0,VWS V15.00,2018-09-19 14:00:00,
2018-09-19 10:04:58,84.3,78.94,30.00,SW,228,0,7,84,0,,CLR,0,VWS V15.00,2018-09-19 14:04:58,
2018-09-19 10:10:02,84.7,78.97,30.02,SW,215,2,7,83,0,,CLR,0,VWS V15.00,2018-09-19 14:10:02,
2018-09-19 10:15:03,85.1,79.36,30.01,SW,224,5,8,83,0,,CLR,0,VWS V15.00,2018-09-19 14:15:03,
2018-09-19 10:20:02,85.6,79.48,30.01,SW,217,0,8,82,0,,CLR,0,VWS V15.00,2018-09-19 14:20:02,
2018-09-19 10:25:03,86,79.49,30.01,South,178,0,8,81,0,,CLR,0,VWS V15.00,2018-09-19 14:25:03,
2018-09-19 10:30:02,86.5,79.6,30.01,SW,219,4,9,80,0,,CLR,0,VWS V15.00,2018-09-19 14:30:02,
2018-09-19 10:35:03,86.7,79.02,30.02,West,270,0,9,78,0,,CLR,0,VWS V15.00,2018-09-19 14:35:03,
2018-09-19 10:39:12,87,79.31,30.01,SSW,202,0,9,78,0,,CLR,0,VWS V15.00,2018-09-19 14:39:12,
2018-09-19 10:44:13,87,79.31,30.02,SSW,197,0,9,78,0,,CLR,0,VWS V15.00,2018-09-19 14:44:13,
2018-09-19 10:49:13,87.3,79.21,30.02,SW,227,0,9,77,0,,CLR,0,VWS V15.00,2018-09-19 14:49:13,
2018-09-19 10:54:17,87.7,79.6,30.02,South,191,0,9,77,0,,CLR,0,VWS V15.00,2018-09-19 14:54:17,
2018-09-19 11:00:00,88.2,80.87,30.02,SSW,202,4,9,79,0,,CLR,0,VWS V15.00,2018-09-19 15:00:00,
2018-09-19 11:04:18,88.4,80.67,30.02,WSW,251,0,8,78,0,,CLR,0,VWS V15.00,2018-09-19 15:04:18,
2018-09-19 11:09:18,88.5,79.57,30.01,WSW,245,0,8,75,0,,CLR,0,VWS V15.00,2018-09-19 15:09:18,
2018-09-19 11:14:23,88.7,79.35,30.02,WSW,248,4,8,74,0,,CLR,0,VWS V15.00,2018-09-19 15:14:23,
2018-09-19 11:19:23,88.8,79.45,30.01,WSW,245,0,8,74,0,,FEW024,0,VWS V15.00,2018-09-19 15:19:23,
2018-09-19 11:24:22,88.7,78.94,30.02,WSW,248,0,8,73,0,,CLR,0,VWS V15.00,2018-09-19 15:24:22,
2018-09-19 11:29:28,88.4,78.65,30.02,West,270,0,8,73,0,,CLR,0,VWS V15.00,2018-09-19 15:29:28,
2018-09-19 11:34:27,88.3,80.18,30.02,South,184,2,8,77,0,,CLR,0,VWS V15.00,2018-09-19 15:34:27,
2018-09-19 11:39:28,88.3,78.55,30.01,South,187,0,8,73,0,,FEW024,0,VWS V15.00,2018-09-19 15:39:28,
2018-09-19 11:44:32,88.6,80.07,30.01,SSE,162,5,8,76,0,,FEW024,0,VWS V15.00,2018-09-19 15:44:32,
2018-09-19 11:49:33,89.1,79.32,30.02,WSW,239,0,8,73,0,,FEW024,0,VWS V15.00,2018-09-19 15:49:33,
2018-09-19 11:54:33,89.2,78.14,30.01,West,280,3,8,70,0,,FEW024,0,VWS V15.00,2018-09-19 15:54:33,
2018-09-19 12:00:00,89.3,77.36,30.01,SW,235,0,8,68,0,,FEW024,0,VWS V15.00,2018-09-19 16:00:00,
2018-09-19 12:04:37,89.7,78.18,30.02,SW,229,0,8,69,0,,FEW024,0,VWS V15.00,2018-09-19 16:04:37,
2018-09-19 12:09:38,89.9,78.37,30.02,West,265,0,8,69,0,,FEW024,0,VWS V15.00,2018-09-19 16:09:38,
2018-09-19 12:14:38,90.2,79.09,30.01,WSW,257,4,8,70,0,,FEW024,0,VWS V15.00,2018-09-19 16:14:38,
2018-09-19 12:19:42,90.3,78.31,30.01,WSW,250,0,8,68,0,,FEW024,0,VWS V15.00,2018-09-19 16:19:42,
2018-09-19 12:24:43,90.6,78.59,30.01,South,172,0,8,68,0,,FEW024,0,VWS V15.00,2018-09-19 16:24:43,
2018-09-19 12:29:43,91,79.42,30.02,SW,222,0,8,69,0,,FEW024,0,VWS V15.00,2018-09-19 16:29:43,
2018-09-19 12:34:47,91.3,78.81,30.01,SW,219,0,8,67,0,,FEW024,0,VWS V15.00,2018-09-19 16:34:47,
2018-09-19 12:39:48,91.7,78.73,30.02,SW,219,0,8,66,0,,FEW039,0,VWS V15.00,2018-09-19 16:39:48,
2018-09-19 12:44:48,91.9,78.92,30.02,SW,229,0,8,66,0,,FEW039,0,VWS V15.00,2018-09-19 16:44:48,
2018-09-19 12:49:48,92.2,78.74,30.02,NNW,331,0,8,65,0,,FEW039,0,VWS V15.00,2018-09-19 16:49:48,
2018-09-19 12:54:53,92.4,77.98,30.02,NW,321,0,8,63,0,,FEW039,0,VWS V15.00,2018-09-19 16:54:53,
2018-09-19 13:00:00,91.4,77.98,30.01,NNW,340,0,8,65,0,,FEW039,0,VWS V15.00,2018-09-19 17:00:00,
2018-09-19 13:04:52,91,78.07,30.01,NNW,340,0,0,66,0,,FEW039,0,VWS V15.00,2018-09-19 17:04:52,
2018-09-19 13:09:57,90.8,77.42,30.02,West,260,0,3,65,0,,FEW039,0,VWS V15.00,2018-09-19 17:09:57,
2018-09-19 13:14:57,90.7,77.78,30.01,West,260,0,3,66,0,,FEW039,0,VWS V15.00,2018-09-19 17:14:57,
2018-09-19 13:19:57,90.7,78.24,30.00,WSW,248,0,4,67,0,,FEW039,0,VWS V15.00,2018-09-19 17:19:57,
2018-09-19 13:25:03,91.1,78.62,30.01,WSW,238,0,4,67,0,,FEW039,0,VWS V15.00,2018-09-19 17:25:03,
2018-09-19 13:30:02,91.5,78.08,30.01,SW,218,0,5,65,0,,FEW039,0,VWS V15.00,2018-09-19 17:30:02,
2018-09-19 13:35:02,92.1,78.65,30.00,SSE,166,0,5,65,0,,FEW039,0,VWS V15.00,2018-09-19 17:35:02,
2018-09-19 13:40:02,92.7,79.21,29.99,WSW,248,0,5,65,0,,FEW048,0,VWS V15.00,2018-09-19 17:40:02,